sensor_id;sensor_type;location;lat;lon;timestamp;P1;durP1;ratioP1;P2;durP2;ratioP2
21494;SDS011;10909;53.590;10.054;2022-10-16T00:01:24;3.10;;;2.80;;
21494;SDS011;10909;53.590;10.054;2022-10-16T00:03:51;3.92;;;2.90;;
21494;SDS011;10909;53.590;10.054;2022-10-16T00:06:18;2.88;;;2.67;;
21494;SDS011;10909;53.590;10.054;2022-10-16T00:08:44;3.50;;;3.20;;
21494;SDS011;10909;53.590;10.054;2022-10-16T00:11:12;2.42;;;2.17;;
21494;SDS011;10909;53.590;10.054;2022-10-16T00:13:42;3.05;;;2.42;;
21494;SDS011;10909;53.590;10.054;2022-10-16T00:16:10;2.90;;;2.60;;
21494;SDS011;10909;53.590;10.054;2022-10-16T00:18:37;4.10;;;2.58;;
21494;SDS011;10909;53.590;10.054;2022-10-16T00:21:08;3.38;;;2.47;;
21494;SDS011;10909;53.590;10.054;2022-10-16T00:23:35;3.33;;;2.40;;
21494;SDS011;10909;53.590;10.054;2022-10-16T00:26:03;2.40;;;2.15;;
21494;SDS011;10909;53.590;10.054;2022-10-16T00:28:30;2.25;;;2.05;;
21494;SDS011;10909;53.590;10.054;2022-10-16T00:30:56;2.42;;;2.10;;
21494;SDS011;10909;53.590;10.054;2022-10-16T00:33:22;3.53;;;2.13;;
21494;SDS011;10909;53.590;10.054;2022-10-16T00:35:48;3.65;;;1.88;;
21494;SDS011;10909;53.590;10.054;2022-10-16T00:38:15;2.10;;;1.65;;
21494;SDS011;10909;53.590;10.054;2022-10-16T00:40:41;2.47;;;2.00;;
21494;SDS011;10909;53.590;10.054;2022-10-16T00:43:13;1.95;;;1.40;;
21494;SDS011;10909;53.590;10.054;2022-10-16T00:45:58;2.72;;;1.80;;
21494;SDS011;10909;53.590;10.054;2022-10-16T00:48:28;1.45;;;1.33;;
21494;SDS011;10909;53.590;10.054;2022-10-16T00:50:54;2.15;;;1.45;;
21494;SDS011;10909;53.590;10.054;2022-10-16T00:53:20;2.05;;;1.40;;
21494;SDS011;10909;53.590;10.054;2022-10-16T00:55:47;3.33;;;1.42;;
21494;SDS011;10909;53.590;10.054;2022-10-16T00:58:13;3.45;;;1.45;;
21494;SDS011;10909;53.590;10.054;2022-10-16T01:00:38;2.58;;;1.45;;
21494;SDS011;10909;53.590;10.054;2022-10-16T01:03:21;4.85;;;1.48;;
21494;SDS011;10909;53.590;10.054;2022-10-16T01:06:08;2.05;;;1.30;;
21494;SDS011;10909;53.590;10.054;2022-10-16T01:08:39;1.08;;;1.00;;
21494;SDS011;10909;53.590;10.054;2022-10-16T01:11:13;2.70;;;1.35;;
21494;SDS011;10909;53.590;10.054;2022-10-16T01:13:48;1.77;;;1.30;;
21494;SDS011;10909;53.590;10.054;2022-10-16T01:16:28;2.38;;;1.20;;
21494;SDS011;10909;53.590;10.054;2022-10-16T01:21:55;2.30;;;1.10;;
21494;SDS011;10909;53.590;10.054;2022-10-16T01:29:45;2.13;;;1.15;;
21494;SDS011;10909;53.590;10.054;2022-10-16T01:32:37;2.88;;;1.10;;
21494;SDS011;10909;53.590;10.054;2022-10-16T01:35:50;1.88;;;1.08;;
21494;SDS011;10909;53.590;10.054;2022-10-16T01:40:41;2.70;;;1.02;;
21494;SDS011;10909;53.590;10.054;2022-10-16T01:43:13;1.50;;;1.02;;
21494;SDS011;10909;53.590;10.054;2022-10-16T01:45:42;2.95;;;1.40;;
21494;SDS011;10909;53.590;10.054;2022-10-16T01:48:09;2.63;;;1.10;;
21494;SDS011;10909;53.590;10.054;2022-10-16T01:50:39;1.27;;;1.17;;
21494;SDS011;10909;53.590;10.054;2022-10-16T01:53:08;2.20;;;1.50;;
21494;SDS011;10909;53.590;10.054;2022-10-16T01:55:38;1.88;;;1.10;;
21494;SDS011;10909;53.590;10.054;2022-10-16T01:58:10;1.80;;;1.08;;
21494;SDS011;10909;53.590;10.054;2022-10-16T02:00:38;3.20;;;1.30;;
21494;SDS011;10909;53.590;10.054;2022-10-16T02:03:06;1.63;;;1.00;;
21494;SDS011;10909;53.590;10.054;2022-10-16T02:05:36;1.10;;;1.00;;
21494;SDS011;10909;53.590;10.054;2022-10-16T02:08:17;2.90;;;1.20;;
21494;SDS011;10909;53.590;10.054;2022-10-16T02:10:45;1.27;;;1.10;;
21494;SDS011;10909;53.590;10.054;2022-10-16T02:15:52;1.70;;;1.10;;
21494;SDS011;10909;53.590;10.054;2022-10-16T02:18:18;2.13;;;1.10;;
21494;SDS011;10909;53.590;10.054;2022-10-16T02:26:03;2.03;;;1.10;;
21494;SDS011;10909;53.590;10.054;2022-10-16T02:28:35;3.40;;;1.15;;
21494;SDS011;10909;53.590;10.054;2022-10-16T02:31:11;2.13;;;1.05;;
21494;SDS011;10909;53.590;10.054;2022-10-16T02:33:40;2.25;;;1.15;;
21494;SDS011;10909;53.590;10.054;2022-10-16T02:36:08;1.23;;;1.00;;
21494;SDS011;10909;53.590;10.054;2022-10-16T02:38:34;1.60;;;1.02;;
21494;SDS011;10909;53.590;10.054;2022-10-16T02:41:01;1.30;;;1.20;;
21494;SDS011;10909;53.590;10.054;2022-10-16T02:43:28;1.10;;;1.00;;
21494;SDS011;10909;53.590;10.054;2022-10-16T02:45:53;1.58;;;1.00;;
21494;SDS011;10909;53.590;10.054;2022-10-16T02:48:19;1.35;;;1.20;;
21494;SDS011;10909;53.590;10.054;2022-10-16T02:50:45;2.33;;;1.10;;
21494;SDS011;10909;53.590;10.054;2022-10-16T02:53:10;1.92;;;1.10;;
21494;SDS011;10909;53.590;10.054;2022-10-16T02:55:36;5.00;;;0.90;;
21494;SDS011;10909;53.590;10.054;2022-10-16T02:58:01;1.70;;;1.00;;
21494;SDS011;10909;53.590;10.054;2022-10-16T03:00:27;1.98;;;1.10;;
21494;SDS011;10909;53.590;10.054;2022-10-16T03:02:53;3.42;;;1.00;;
21494;SDS011;10909;53.590;10.054;2022-10-16T03:05:19;1.70;;;1.00;;
21494;SDS011;10909;53.590;10.054;2022-10-16T03:07:44;1.17;;;0.90;;
21494;SDS011;10909;53.590;10.054;2022-10-16T03:10:10;2.83;;;0.90;;
21494;SDS011;10909;53.590;10.054;2022-10-16T03:12:36;1.10;;;0.93;;
21494;SDS011;10909;53.590;10.054;2022-10-16T03:15:01;1.20;;;1.10;;
21494;SDS011;10909;53.590;10.054;2022-10-16T03:17:33;1.15;;;0.80;;
21494;SDS011;10909;53.590;10.054;2022-10-16T03:19:59;5.28;;;1.10;;
21494;SDS011;10909;53.590;10.054;2022-10-16T03:22:25;1.08;;;0.98;;
21494;SDS011;10909;53.590;10.054;2022-10-16T03:24:50;1.00;;;0.90;;
21494;SDS011;10909;53.590;10.054;2022-10-16T03:27:16;1.50;;;1.10;;
21494;SDS011;10909;53.590;10.054;2022-10-16T03:29:41;1.88;;;1.05;;
21494;SDS011;10909;53.590;10.054;2022-10-16T03:32:07;3.10;;;0.73;;
21494;SDS011;10909;53.590;10.054;2022-10-16T03:34:33;1.63;;;1.08;;
21494;SDS011;10909;53.590;10.054;2022-10-16T03:36:58;2.03;;;1.10;;
21494;SDS011;10909;53.590;10.054;2022-10-16T03:39:24;1.10;;;0.90;;
21494;SDS011;10909;53.590;10.054;2022-10-16T03:41:50;1.05;;;0.93;;
21494;SDS011;10909;53.590;10.054;2022-10-16T03:44:15;1.58;;;1.15;;
21494;SDS011;10909;53.590;10.054;2022-10-16T03:46:41;2.45;;;1.10;;
21494;SDS011;10909;53.590;10.054;2022-10-16T03:49:07;1.58;;;0.93;;
21494;SDS011;10909;53.590;10.054;2022-10-16T03:51:32;1.80;;;1.20;;
21494;SDS011;10909;53.590;10.054;2022-10-16T03:53:58;1.80;;;1.10;;
21494;SDS011;10909;53.590;10.054;2022-10-16T03:56:24;1.92;;;1.30;;
21494;SDS011;10909;53.590;10.054;2022-10-16T03:58:49;1.25;;;0.95;;
21494;SDS011;10909;53.590;10.054;2022-10-16T04:01:15;1.45;;;0.95;;
21494;SDS011;10909;53.590;10.054;2022-10-16T04:03:40;1.92;;;1.10;;
21494;SDS011;10909;53.590;10.054;2022-10-16T04:06:06;1.67;;;0.88;;
21494;SDS011;10909;53.590;10.054;2022-10-16T04:08:32;2.10;;;1.10;;
21494;SDS011;10909;53.590;10.054;2022-10-16T04:11:00;3.05;;;0.95;;
21494;SDS011;10909;53.590;10.054;2022-10-16T04:13:26;2.25;;;0.93;;
21494;SDS011;10909;53.590;10.054;2022-10-16T04:15:52;2.05;;;0.90;;
21494;SDS011;10909;53.590;10.054;2022-10-16T04:18:17;1.10;;;1.00;;
21494;SDS011;10909;53.590;10.054;2022-10-16T04:20:43;2.05;;;0.90;;
21494;SDS011;10909;53.590;10.054;2022-10-16T04:23:08;3.28;;;0.90;;
21494;SDS011;10909;53.590;10.054;2022-10-16T04:25:34;1.23;;;0.90;;
21494;SDS011;10909;53.590;10.054;2022-10-16T04:28:00;3.65;;;1.10;;
21494;SDS011;10909;53.590;10.054;2022-10-16T04:30:25;1.10;;;1.00;;
21494;SDS011;10909;53.590;10.054;2022-10-16T04:32:51;2.85;;;0.95;;
21494;SDS011;10909;53.590;10.054;2022-10-16T04:35:18;1.10;;;0.93;;
21494;SDS011;10909;53.590;10.054;2022-10-16T04:37:44;1.15;;;0.82;;
21494;SDS011;10909;53.590;10.054;2022-10-16T04:40:10;2.15;;;1.17;;
21494;SDS011;10909;53.590;10.054;2022-10-16T04:42:36;1.52;;;0.90;;
21494;SDS011;10909;53.590;10.054;2022-10-16T04:45:03;2.42;;;1.10;;
21494;SDS011;10909;53.590;10.054;2022-10-16T04:47:30;1.35;;;1.00;;
21494;SDS011;10909;53.590;10.054;2022-10-16T04:49:55;1.42;;;0.95;;
21494;SDS011;10909;53.590;10.054;2022-10-16T04:52:21;1.05;;;0.80;;
21494;SDS011;10909;53.590;10.054;2022-10-16T04:54:49;2.53;;;0.97;;
21494;SDS011;10909;53.590;10.054;2022-10-16T04:57:15;1.45;;;1.00;;
21494;SDS011;10909;53.590;10.054;2022-10-16T04:59:41;1.07;;;0.90;;
21494;SDS011;10909;53.590;10.054;2022-10-16T05:02:07;2.45;;;1.00;;
21494;SDS011;10909;53.590;10.054;2022-10-16T05:04:33;1.88;;;1.15;;
21494;SDS011;10909;53.590;10.054;2022-10-16T05:06:59;2.27;;;0.93;;
21494;SDS011;10909;53.590;10.054;2022-10-16T05:09:24;2.40;;;1.00;;
21494;SDS011;10909;53.590;10.054;2022-10-16T05:11:50;1.63;;;0.80;;
21494;SDS011;10909;53.590;10.054;2022-10-16T05:14:16;1.37;;;0.90;;
21494;SDS011;10909;53.590;10.054;2022-10-16T05:16:41;1.53;;;1.10;;
21494;SDS011;10909;53.590;10.054;2022-10-16T05:19:07;2.20;;;1.00;;
21494;SDS011;10909;53.590;10.054;2022-10-16T05:21:33;1.90;;;1.10;;
21494;SDS011;10909;53.590;10.054;2022-10-16T05:23:58;2.30;;;1.00;;
21494;SDS011;10909;53.590;10.054;2022-10-16T05:26:24;1.48;;;1.17;;
21494;SDS011;10909;53.590;10.054;2022-10-16T05:28:49;3.40;;;1.27;;
21494;SDS011;10909;53.590;10.054;2022-10-16T05:31:15;4.50;;;1.30;;
21494;SDS011;10909;53.590;10.054;2022-10-16T05:33:41;1.53;;;1.20;;
21494;SDS011;10909;53.590;10.054;2022-10-16T05:36:07;1.70;;;1.00;;
21494;SDS011;10909;53.590;10.054;2022-10-16T05:38:35;1.20;;;1.00;;
21494;SDS011;10909;53.590;10.054;2022-10-16T05:41:01;2.60;;;1.20;;
21494;SDS011;10909;53.590;10.054;2022-10-16T05:43:28;1.60;;;1.20;;
21494;SDS011;10909;53.590;10.054;2022-10-16T05:45:58;2.60;;;1.43;;
21494;SDS011;10909;53.590;10.054;2022-10-16T05:48:26;3.38;;;1.08;;
21494;SDS011;10909;53.590;10.054;2022-10-16T05:50:56;2.90;;;0.90;;
21494;SDS011;10909;53.590;10.054;2022-10-16T05:53:27;2.70;;;1.10;;
21494;SDS011;10909;53.590;10.054;2022-10-16T05:55:54;1.47;;;1.20;;
21494;SDS011;10909;53.590;10.054;2022-10-16T05:58:20;0.90;;;0.90;;
21494;SDS011;10909;53.590;10.054;2022-10-16T06:00:56;1.98;;;1.08;;
21494;SDS011;10909;53.590;10.054;2022-10-16T06:03:33;3.03;;;1.30;;
21494;SDS011;10909;53.590;10.054;2022-10-16T06:05:59;2.08;;;1.10;;
21494;SDS011;10909;53.590;10.054;2022-10-16T06:08:32;1.98;;;1.30;;
21494;SDS011;10909;53.590;10.054;2022-10-16T06:11:02;1.73;;;1.13;;
21494;SDS011;10909;53.590;10.054;2022-10-16T06:13:29;1.40;;;1.10;;
21494;SDS011;10909;53.590;10.054;2022-10-16T06:15:56;1.63;;;1.05;;
21494;SDS011;10909;53.590;10.054;2022-10-16T06:18:23;1.60;;;1.10;;
21494;SDS011;10909;53.590;10.054;2022-10-16T06:20:49;1.65;;;1.13;;
21494;SDS011;10909;53.590;10.054;2022-10-16T06:23:14;1.17;;;1.08;;
21494;SDS011;10909;53.590;10.054;2022-10-16T06:25:40;2.37;;;1.10;;
21494;SDS011;10909;53.590;10.054;2022-10-16T06:28:06;1.50;;;1.17;;
21494;SDS011;10909;53.590;10.054;2022-10-16T06:30:31;1.83;;;1.50;;
21494;SDS011;10909;53.590;10.054;2022-10-16T06:32:57;3.40;;;1.40;;
21494;SDS011;10909;53.590;10.054;2022-10-16T06:35:23;2.00;;;1.20;;
21494;SDS011;10909;53.590;10.054;2022-10-16T06:37:49;2.10;;;1.50;;
21494;SDS011;10909;53.590;10.054;2022-10-16T06:40:14;1.90;;;1.50;;
21494;SDS011;10909;53.590;10.054;2022-10-16T06:42:40;3.78;;;1.35;;
21494;SDS011;10909;53.590;10.054;2022-10-16T06:45:07;1.40;;;1.30;;
21494;SDS011;10909;53.590;10.054;2022-10-16T06:47:33;1.60;;;1.33;;
21494;SDS011;10909;53.590;10.054;2022-10-16T06:49:58;1.73;;;1.35;;
21494;SDS011;10909;53.590;10.054;2022-10-16T06:52:24;3.53;;;1.40;;
21494;SDS011;10909;53.590;10.054;2022-10-16T06:54:50;2.00;;;1.42;;
21494;SDS011;10909;53.590;10.054;2022-10-16T06:57:15;2.67;;;1.23;;
21494;SDS011;10909;53.590;10.054;2022-10-16T06:59:41;1.63;;;1.30;;
21494;SDS011;10909;53.590;10.054;2022-10-16T07:02:07;2.03;;;1.40;;
21494;SDS011;10909;53.590;10.054;2022-10-16T07:04:35;3.03;;;1.40;;
21494;SDS011;10909;53.590;10.054;2022-10-16T07:07:01;2.42;;;1.40;;
21494;SDS011;10909;53.590;10.054;2022-10-16T07:09:27;2.35;;;1.52;;
21494;SDS011;10909;53.590;10.054;2022-10-16T07:11:52;2.22;;;1.33;;
21494;SDS011;10909;53.590;10.054;2022-10-16T07:14:18;1.50;;;1.40;;
21494;SDS011;10909;53.590;10.054;2022-10-16T07:16:46;2.10;;;1.42;;
21494;SDS011;10909;53.590;10.054;2022-10-16T07:19:12;2.15;;;1.52;;
21494;SDS011;10909;53.590;10.054;2022-10-16T07:21:40;2.53;;;1.50;;
21494;SDS011;10909;53.590;10.054;2022-10-16T07:24:07;2.97;;;1.80;;
21494;SDS011;10909;53.590;10.054;2022-10-16T07:26:36;3.13;;;1.40;;
21494;SDS011;10909;53.590;10.054;2022-10-16T07:29:04;2.17;;;1.48;;
21494;SDS011;10909;53.590;10.054;2022-10-16T07:31:31;2.08;;;1.60;;
21494;SDS011;10909;53.590;10.054;2022-10-16T07:33:58;2.55;;;1.35;;
21494;SDS011;10909;53.590;10.054;2022-10-16T07:36:25;2.17;;;1.60;;
21494;SDS011;10909;53.590;10.054;2022-10-16T07:38:50;2.47;;;1.60;;
21494;SDS011;10909;53.590;10.054;2022-10-16T07:41:17;1.50;;;1.40;;
21494;SDS011;10909;53.590;10.054;2022-10-16T07:43:47;2.20;;;1.58;;
21494;SDS011;10909;53.590;10.054;2022-10-16T07:46:15;3.33;;;1.60;;
21494;SDS011;10909;53.590;10.054;2022-10-16T07:48:41;3.38;;;1.60;;
21494;SDS011;10909;53.590;10.054;2022-10-16T07:51:10;2.50;;;1.55;;
21494;SDS011;10909;53.590;10.054;2022-10-16T07:53:36;2.42;;;1.48;;
21494;SDS011;10909;53.590;10.054;2022-10-16T07:56:04;2.28;;;1.58;;
21494;SDS011;10909;53.590;10.054;2022-10-16T07:58:31;1.52;;;1.40;;
21494;SDS011;10909;53.590;10.054;2022-10-16T08:00:58;1.92;;;1.40;;
21494;SDS011;10909;53.590;10.054;2022-10-16T08:03:24;3.03;;;1.58;;
21494;SDS011;10909;53.590;10.054;2022-10-16T08:05:50;2.13;;;1.40;;
21494;SDS011;10909;53.590;10.054;2022-10-16T08:08:17;1.58;;;1.20;;
21494;SDS011;10909;53.590;10.054;2022-10-16T08:10:43;1.98;;;1.15;;
21494;SDS011;10909;53.590;10.054;2022-10-16T08:13:09;3.38;;;1.35;;
21494;SDS011;10909;53.590;10.054;2022-10-16T08:15:35;1.67;;;1.27;;
21494;SDS011;10909;53.590;10.054;2022-10-16T08:18:02;1.63;;;1.20;;
21494;SDS011;10909;53.590;10.054;2022-10-16T08:20:30;1.17;;;1.02;;
21494;SDS011;10909;53.590;10.054;2022-10-16T08:22:57;1.50;;;1.20;;
21494;SDS011;10909;53.590;10.054;2022-10-16T08:25:23;2.58;;;1.50;;
21494;SDS011;10909;53.590;10.054;2022-10-16T08:27:49;2.53;;;1.55;;
21494;SDS011;10909;53.590;10.054;2022-10-16T08:30:16;2.13;;;1.40;;
21494;SDS011;10909;53.590;10.054;2022-10-16T08:32:43;2.22;;;1.30;;
21494;SDS011;10909;53.590;10.054;2022-10-16T08:35:09;2.33;;;1.35;;
21494;SDS011;10909;53.590;10.054;2022-10-16T08:37:36;1.73;;;1.30;;
21494;SDS011;10909;53.590;10.054;2022-10-16T08:40:02;1.92;;;1.50;;
21494;SDS011;10909;53.590;10.054;2022-10-16T08:51:06;1.83;;;1.40;;
21494;SDS011;10909;53.590;10.054;2022-10-16T08:56:08;3.22;;;1.70;;
21494;SDS011;10909;53.590;10.054;2022-10-16T08:58:33;1.55;;;1.45;;
21494;SDS011;10909;53.590;10.054;2022-10-16T09:01:00;1.95;;;1.42;;
21494;SDS011;10909;53.590;10.054;2022-10-16T09:06:35;2.10;;;1.50;;
21494;SDS011;10909;53.590;10.054;2022-10-16T09:17:52;1.45;;;1.35;;
21494;SDS011;10909;53.590;10.054;2022-10-16T09:20:37;2.17;;;1.70;;
21494;SDS011;10909;53.590;10.054;2022-10-16T09:23:35;2.55;;;1.45;;
21494;SDS011;10909;53.590;10.054;2022-10-16T09:26:01;1.35;;;1.10;;
21494;SDS011;10909;53.590;10.054;2022-10-16T09:28:28;1.67;;;1.15;;
21494;SDS011;10909;53.590;10.054;2022-10-16T09:30:54;2.60;;;1.10;;
21494;SDS011;10909;53.590;10.054;2022-10-16T09:33:28;2.25;;;1.40;;
21494;SDS011;10909;53.590;10.054;2022-10-16T09:36:02;1.63;;;1.25;;
21494;SDS011;10909;53.590;10.054;2022-10-16T09:38:33;1.25;;;1.15;;
21494;SDS011;10909;53.590;10.054;2022-10-16T09:41:13;1.70;;;0.90;;
21494;SDS011;10909;53.590;10.054;2022-10-16T09:43:48;3.28;;;1.23;;
21494;SDS011;10909;53.590;10.054;2022-10-16T09:46:22;1.58;;;1.25;;
21494;SDS011;10909;53.590;10.054;2022-10-16T09:48:49;3.28;;;1.27;;
21494;SDS011;10909;53.590;10.054;2022-10-16T09:51:18;3.25;;;1.20;;
21494;SDS011;10909;53.590;10.054;2022-10-16T09:53:53;4.07;;;1.23;;
21494;SDS011;10909;53.590;10.054;2022-10-16T09:56:26;1.98;;;0.93;;
21494;SDS011;10909;53.590;10.054;2022-10-16T09:58:55;2.08;;;1.00;;
21494;SDS011;10909;53.590;10.054;2022-10-16T10:01:24;2.45;;;1.10;;
21494;SDS011;10909;53.590;10.054;2022-10-16T10:03:55;2.28;;;1.08;;
21494;SDS011;10909;53.590;10.054;2022-10-16T10:06:28;3.70;;;1.10;;
21494;SDS011;10909;53.590;10.054;2022-10-16T10:14:23;1.52;;;1.13;;
21494;SDS011;10909;53.590;10.054;2022-10-16T10:16:49;1.48;;;1.00;;
21494;SDS011;10909;53.590;10.054;2022-10-16T10:19:17;2.70;;;1.33;;
21494;SDS011;10909;53.590;10.054;2022-10-16T10:21:47;2.65;;;1.15;;
21494;SDS011;10909;53.590;10.054;2022-10-16T10:24:15;2.75;;;1.20;;
21494;SDS011;10909;53.590;10.054;2022-10-16T10:26:48;2.38;;;1.13;;
21494;SDS011;10909;53.590;10.054;2022-10-16T10:29:24;2.40;;;1.30;;
21494;SDS011;10909;53.590;10.054;2022-10-16T10:32:27;1.85;;;1.10;;
21494;SDS011;10909;53.590;10.054;2022-10-16T10:35:25;2.05;;;1.00;;
21494;SDS011;10909;53.590;10.054;2022-10-16T10:41:08;2.13;;;1.10;;
21494;SDS011;10909;53.590;10.054;2022-10-16T10:46:35;3.00;;;1.13;;
21494;SDS011;10909;53.590;10.054;2022-10-16T10:57:30;1.77;;;1.10;;
21494;SDS011;10909;53.590;10.054;2022-10-16T11:11:18;3.97;;;1.13;;
21494;SDS011;10909;53.590;10.054;2022-10-16T11:13:45;2.28;;;1.10;;
21494;SDS011;10909;53.590;10.054;2022-10-16T11:16:21;1.98;;;1.10;;
21494;SDS011;10909;53.590;10.054;2022-10-16T11:21:25;1.52;;;1.00;;
21494;SDS011;10909;53.590;10.054;2022-10-16T11:23:57;5.60;;;1.10;;
21494;SDS011;10909;53.590;10.054;2022-10-16T11:26:27;2.72;;;1.05;;
21494;SDS011;10909;53.590;10.054;2022-10-16T11:28:58;1.83;;;1.10;;
21494;SDS011;10909;53.590;10.054;2022-10-16T11:36:52;2.03;;;0.75;;
21494;SDS011;10909;53.590;10.054;2022-10-16T11:39:28;1.08;;;0.75;;
21494;SDS011;10909;53.590;10.054;2022-10-16T11:44:41;3.05;;;1.00;;
21494;SDS011;10909;53.590;10.054;2022-10-16T11:47:34;2.90;;;0.80;;
21494;SDS011;10909;53.590;10.054;2022-10-16T11:53:00;2.60;;;0.90;;
21494;SDS011;10909;53.590;10.054;2022-10-16T11:55:31;1.05;;;0.80;;
21494;SDS011;10909;53.590;10.054;2022-10-16T11:58:03;2.72;;;1.00;;
21494;SDS011;10909;53.590;10.054;2022-10-16T12:00:57;2.63;;;1.10;;
21494;SDS011;10909;53.590;10.054;2022-10-16T12:03:42;1.40;;;0.80;;
21494;SDS011;10909;53.590;10.054;2022-10-16T12:08:51;2.58;;;1.20;;
21494;SDS011;10909;53.590;10.054;2022-10-16T12:16:37;2.97;;;1.10;;
21494;SDS011;10909;53.590;10.054;2022-10-16T12:19:11;2.65;;;0.90;;
21494;SDS011;10909;53.590;10.054;2022-10-16T12:21:38;1.65;;;0.90;;
21494;SDS011;10909;53.590;10.054;2022-10-16T12:24:05;4.75;;;1.20;;
21494;SDS011;10909;53.590;10.054;2022-10-16T12:26:37;1.38;;;1.00;;
21494;SDS011;10909;53.590;10.054;2022-10-16T12:31:53;2.30;;;0.90;;
21494;SDS011;10909;53.590;10.054;2022-10-16T12:36:53;2.67;;;1.20;;
21494;SDS011;10909;53.590;10.054;2022-10-16T12:39:24;2.95;;;1.10;;
21494;SDS011;10909;53.590;10.054;2022-10-16T12:42:06;2.10;;;0.93;;
21494;SDS011;10909;53.590;10.054;2022-10-16T12:44:53;2.05;;;1.05;;
21494;SDS011;10909;53.590;10.054;2022-10-16T12:47:23;1.95;;;1.20;;
21494;SDS011;10909;53.590;10.054;2022-10-16T12:50:01;2.33;;;1.10;;
21494;SDS011;10909;53.590;10.054;2022-10-16T12:52:37;3.05;;;1.30;;
21494;SDS011;10909;53.590;10.054;2022-10-16T12:55:04;4.88;;;1.15;;
21494;SDS011;10909;53.590;10.054;2022-10-16T13:00:24;3.72;;;1.20;;
21494;SDS011;10909;53.590;10.054;2022-10-16T13:14:27;3.40;;;1.17;;
21494;SDS011;10909;53.590;10.054;2022-10-16T13:17:53;2.35;;;1.10;;
21494;SDS011;10909;53.590;10.054;2022-10-16T13:23:26;2.88;;;1.30;;
21494;SDS011;10909;53.590;10.054;2022-10-16T13:26:20;2.63;;;1.50;;
21494;SDS011;10909;53.590;10.054;2022-10-16T13:29:00;2.40;;;1.70;;
21494;SDS011;10909;53.590;10.054;2022-10-16T13:31:27;2.28;;;1.83;;
21494;SDS011;10909;53.590;10.054;2022-10-16T13:33:58;1.80;;;1.60;;
21494;SDS011;10909;53.590;10.054;2022-10-16T13:36:29;5.70;;;1.90;;
21494;SDS011;10909;53.590;10.054;2022-10-16T13:41:36;2.72;;;1.55;;
21494;SDS011;10909;53.590;10.054;2022-10-16T13:44:02;2.53;;;1.35;;
21494;SDS011;10909;53.590;10.054;2022-10-16T13:46:27;2.15;;;1.23;;
21494;SDS011;10909;53.590;10.054;2022-10-16T13:48:57;2.15;;;1.17;;
21494;SDS011;10909;53.590;10.054;2022-10-16T13:51:27;3.50;;;1.30;;
21494;SDS011;10909;53.590;10.054;2022-10-16T13:53:54;2.88;;;1.10;;
21494;SDS011;10909;53.590;10.054;2022-10-16T13:56:22;2.35;;;1.52;;
21494;SDS011;10909;53.590;10.054;2022-10-16T13:59:00;2.70;;;1.40;;
21494;SDS011;10909;53.590;10.054;2022-10-16T14:01:34;1.67;;;0.98;;
21494;SDS011;10909;53.590;10.054;2022-10-16T14:04:07;1.75;;;1.17;;
21494;SDS011;10909;53.590;10.054;2022-10-16T14:06:35;3.42;;;1.30;;
21494;SDS011;10909;53.590;10.054;2022-10-16T14:09:05;2.65;;;1.27;;
21494;SDS011;10909;53.590;10.054;2022-10-16T14:11:51;1.83;;;1.20;;
21494;SDS011;10909;53.590;10.054;2022-10-16T14:14:27;2.30;;;1.70;;
21494;SDS011;10909;53.590;10.054;2022-10-16T14:17:04;2.70;;;1.52;;
21494;SDS011;10909;53.590;10.054;2022-10-16T14:19:30;1.58;;;1.30;;
21494;SDS011;10909;53.590;10.054;2022-10-16T14:21:56;1.83;;;1.10;;
21494;SDS011;10909;53.590;10.054;2022-10-16T14:24:32;3.58;;;1.50;;
21494;SDS011;10909;53.590;10.054;2022-10-16T14:26:59;2.20;;;1.55;;
21494;SDS011;10909;53.590;10.054;2022-10-16T14:29:26;2.15;;;1.70;;
21494;SDS011;10909;53.590;10.054;2022-10-16T14:32:00;2.28;;;1.30;;
21494;SDS011;10909;53.590;10.054;2022-10-16T14:34:29;2.60;;;1.48;;
21494;SDS011;10909;53.590;10.054;2022-10-16T14:37:08;2.40;;;1.10;;
21494;SDS011;10909;53.590;10.054;2022-10-16T14:39:41;3.20;;;1.15;;
21494;SDS011;10909;53.590;10.054;2022-10-16T14:42:16;2.53;;;1.40;;
21494;SDS011;10909;53.590;10.054;2022-10-16T14:44:44;2.47;;;1.35;;
21494;SDS011;10909;53.590;10.054;2022-10-16T14:47:14;3.03;;;1.73;;
21494;SDS011;10909;53.590;10.054;2022-10-16T14:49:47;2.00;;;1.50;;
21494;SDS011;10909;53.590;10.054;2022-10-16T14:52:13;2.35;;;1.58;;
21494;SDS011;10909;53.590;10.054;2022-10-16T14:54:39;3.03;;;2.20;;
21494;SDS011;10909;53.590;10.054;2022-10-16T14:57:06;3.05;;;2.42;;
21494;SDS011;10909;53.590;10.054;2022-10-16T14:59:45;2.35;;;1.85;;
21494;SDS011;10909;53.590;10.054;2022-10-16T15:02:33;2.50;;;1.77;;
21494;SDS011;10909;53.590;10.054;2022-10-16T15:05:02;2.72;;;1.70;;
21494;SDS011;10909;53.590;10.054;2022-10-16T15:07:38;2.92;;;1.88;;
21494;SDS011;10909;53.590;10.054;2022-10-16T15:10:04;4.20;;;2.10;;
21494;SDS011;10909;53.590;10.054;2022-10-16T15:12:30;3.88;;;2.63;;
21494;SDS011;10909;53.590;10.054;2022-10-16T15:14:55;4.57;;;2.17;;
21494;SDS011;10909;53.590;10.054;2022-10-16T15:17:21;4.22;;;3.33;;
21494;SDS011;10909;53.590;10.054;2022-10-16T15:19:47;3.58;;;2.97;;
21494;SDS011;10909;53.590;10.054;2022-10-16T15:22:12;3.67;;;2.92;;
21494;SDS011;10909;53.590;10.054;2022-10-16T15:24:38;3.95;;;2.25;;
21494;SDS011;10909;53.590;10.054;2022-10-16T15:27:04;6.15;;;3.40;;
21494;SDS011;10909;53.590;10.054;2022-10-16T15:29:30;4.00;;;2.20;;
21494;SDS011;10909;53.590;10.054;2022-10-16T15:31:55;3.10;;;2.30;;
21494;SDS011;10909;53.590;10.054;2022-10-16T15:34:21;3.55;;;2.45;;
21494;SDS011;10909;53.590;10.054;2022-10-16T15:36:47;5.55;;;2.53;;
21494;SDS011;10909;53.590;10.054;2022-10-16T15:39:14;3.03;;;2.50;;
21494;SDS011;10909;53.590;10.054;2022-10-16T15:41:41;2.42;;;1.95;;
21494;SDS011;10909;53.590;10.054;2022-10-16T15:44:08;3.85;;;2.10;;
21494;SDS011;10909;53.590;10.054;2022-10-16T15:46:33;3.55;;;1.65;;
21494;SDS011;10909;53.590;10.054;2022-10-16T15:49:00;3.67;;;1.70;;
21494;SDS011;10909;53.590;10.054;2022-10-16T15:51:26;3.42;;;1.50;;
21494;SDS011;10909;53.590;10.054;2022-10-16T15:53:54;1.98;;;1.35;;
21494;SDS011;10909;53.590;10.054;2022-10-16T15:56:22;4.72;;;2.30;;
21494;SDS011;10909;53.590;10.054;2022-10-16T15:58:49;3.92;;;2.60;;
21494;SDS011;10909;53.590;10.054;2022-10-16T16:01:15;3.47;;;2.13;;
21494;SDS011;10909;53.590;10.054;2022-10-16T16:03:41;3.28;;;1.90;;
21494;SDS011;10909;53.590;10.054;2022-10-16T16:06:08;4.35;;;2.10;;
21494;SDS011;10909;53.590;10.054;2022-10-16T16:08:36;3.95;;;2.72;;
21494;SDS011;10909;53.590;10.054;2022-10-16T16:11:03;5.72;;;4.18;;
21494;SDS011;10909;53.590;10.054;2022-10-16T16:13:34;7.40;;;4.70;;
21494;SDS011;10909;53.590;10.054;2022-10-16T16:16:02;5.85;;;4.70;;
21494;SDS011;10909;53.590;10.054;2022-10-16T16:18:31;6.88;;;4.43;;
21494;SDS011;10909;53.590;10.054;2022-10-16T16:20:56;4.47;;;3.28;;
21494;SDS011;10909;53.590;10.054;2022-10-16T16:23:22;4.20;;;3.30;;
21494;SDS011;10909;53.590;10.054;2022-10-16T16:26:30;4.85;;;3.05;;
21494;SDS011;10909;53.590;10.054;2022-10-16T16:28:43;5.18;;;3.30;;
21494;SDS011;10909;53.590;10.054;2022-10-16T16:31:09;4.80;;;3.20;;
21494;SDS011;10909;53.590;10.054;2022-10-16T16:33:34;5.35;;;3.78;;
21494;SDS011;10909;53.590;10.054;2022-10-16T16:36:02;5.50;;;3.30;;
21494;SDS011;10909;53.590;10.054;2022-10-16T16:38:29;7.13;;;4.22;;
21494;SDS011;10909;53.590;10.054;2022-10-16T16:40:55;7.47;;;4.88;;
21494;SDS011;10909;53.590;10.054;2022-10-16T16:43:24;6.40;;;4.72;;
21494;SDS011;10909;53.590;10.054;2022-10-16T16:45:51;5.40;;;3.47;;